Time;durP1;ratioP1;P1;durP2;ratioP2;P2;SDS_P1;SDS_P2;PMS_P1;PMS_P2;Temp;Humidity;BMP_temperature;BMP_pressure;BME280_temperature;BME280_humidity;BME280_pressure;Samples;Min_cycle;Max_cycle;Signal;HPM_P1;HPM_P2
2022/06/09 00:01:28;;;;;;;9.30;1.40;;;;;;;15.30;69.41;100528.19;6132979;23;20128;-72
2022/06/09 00:03:56;;;;;;;9.93;1.25;;;;;;;15.27;69.29;100526.84;6158503;23;20010;-72
2022/06/09 00:06:22;;;;;;;8.45;1.70;;;;;;;15.23;69.40;100525.03;6158708;23;20009;-72
2022/06/09 00:08:48;;;;;;;10.68;1.50;;;;;;;15.18;69.24;100525.97;6134358;23;20010;-72
2022/06/09 00:11:17;;;;;;;9.68;1.52;;;;;;;15.10;69.88;100523.97;6160514;23;20301;-72
2022/06/09 00:13:43;;;;;;;10.15;1.60;;;;;;;15.04;70.04;100533.66;6134354;23;20005;-72
2022/06/09 00:16:10;;;;;;;7.25;1.52;;;;;;;14.97;70.14;100529.38;6110105;23;20010;-72
2022/06/09 00:18:36;;;;;;;6.63;1.70;;;;;;;14.93;70.35;100539.56;6183744;23;20005;-72
2022/06/09 00:21:02;;;;;;;9.48;1.50;;;;;;;14.88;70.68;100536.09;6160294;23;20013;-72
2022/06/09 00:23:27;;;;;;;10.68;1.77;;;;;;;14.84;70.74;100535.91;6160152;23;20065;-72
2022/06/09 00:25:53;;;;;;;9.88;1.50;;;;;;;14.81;70.62;100536.53;6134018;23;20009;-72
2022/06/09 00:28:18;;;;;;;7.53;1.45;;;;;;;14.78;71.07;100525.19;6160279;23;20013;-72
2022/06/09 00:30:44;;;;;;;8.45;1.60;;;;;;;14.76;70.89;100528.28;6160091;23;20017;-72
2022/06/09 00:33:09;;;;;;;12.00;1.90;;;;;;;14.72;70.67;100532.91;6160066;23;20062;-72
2022/06/09 00:35:34;;;;;;;9.77;1.88;;;;;;;14.67;71.03;100528.25;6160148;23;20049;-72
2022/06/09 00:38:00;;;;;;;8.35;1.63;;;;;;;14.62;70.71;100539.56;6160236;23;20005;-72
2022/06/09 00:40:26;;;;;;;10.02;1.52;;;;;;;14.57;71.12;100541.66;6160145;23;20060;-72
2022/06/09 00:42:51;;;;;;;11.75;1.33;;;;;;;14.56;70.85;100545.63;6159932;23;20436;-72
2022/06/09 00:45:36;;;;;;;8.50;1.70;;;;;;;14.49;71.05;100540.47;6160255;23;20087;-72
2022/06/09 00:48:22;;;;;;;8.50;1.65;;;;;;;14.45;71.22;100539.44;6160041;23;20016;-72
2022/06/09 00:51:01;;;;;;;6.60;1.20;;;;;;;14.40;71.15;100553.53;6144213;23;20013;-72
2022/06/09 00:53:30;;;;;;;5.88;1.33;;;;;;;14.33;71.31;100548.41;6111701;23;20009;-72
2022/06/09 00:55:55;;;;;;;6.18;1.40;;;;;;;14.28;71.48;100554.94;6109581;23;20072;-72
2022/06/09 00:58:22;;;;;;;10.02;1.80;;;;;;;14.24;71.91;100545.56;6133991;23;20065;-72
2022/06/09 01:00:53;;;;;;;9.10;1.80;;;;;;;14.20;71.96;100552.09;6134403;23;20009;-72
2022/06/09 01:03:20;;;;;;;8.45;1.33;;;;;;;14.18;71.98;100549.63;6133878;23;20582;-72
2022/06/09 01:05:45;;;;;;;9.23;1.65;;;;;;;14.16;72.46;100548.31;6133772;23;20089;-72
2022/06/09 01:08:11;;;;;;;6.30;1.40;;;;;;;14.15;72.47;100555.00;6133343;23;20016;-72
2022/06/09 01:10:37;;;;;;;6.45;1.25;;;;;;;14.06;73.04;100550.19;6159686;23;20009;-72
2022/06/09 01:13:02;;;;;;;7.57;2.13;;;;;;;14.08;72.77;100545.13;6159945;23;20005;-72
2022/06/09 01:15:48;;;;;;;7.82;1.52;;;;;;;14.09;73.09;100543.97;6133803;23;20009;-72
2022/06/09 01:18:38;;;;;;;10.50;1.73;;;;;;;14.05;73.18;100547.72;6158559;23;20039;-72
2022/06/09 01:21:09;;;;;;;9.38;1.70;;;;;;;14.04;73.68;100552.47;6159903;23;20040;-72
2022/06/09 01:23:43;;;;;;;8.80;1.40;;;;;;;14.04;73.46;100551.63;6159646;23;20027;-72
2022/06/09 01:26:08;;;;;;;8.07;1.70;;;;;;;14.03;73.97;100550.81;6133540;23;20017;-72
2022/06/09 01:28:55;;;;;;;7.15;1.63;;;;;;;14.04;73.76;100546.91;6159662;23;20326;-72
2022/06/09 01:31:29;;;;;;;6.35;1.40;;;;;;;14.02;73.82;100551.97;6110030;23;20072;-72
2022/06/09 01:34:09;;;;;;;5.65;1.20;;;;;;;14.04;74.37;100552.47;6159977;23;20009;-72
2022/06/09 01:36:51;;;;;;;8.30;1.70;;;;;;;14.04;74.34;100546.06;6134807;23;20053;-72
2022/06/09 01:39:17;;;;;;;6.53;1.52;;;;;;;14.04;74.15;100541.31;6133649;23;20033;-72
2022/06/09 01:41:48;;;;;;;4.60;1.63;;;;;;;14.05;74.72;100548.53;6182670;23;20048;-72
2022/06/09 01:44:14;;;;;;;10.70;1.60;;;;;;;14.05;74.50;100553.31;6133538;23;20505;-72
2022/06/09 01:46:40;;;;;;;8.77;1.35;;;;;;;14.04;74.46;100554.44;6109354;23;20032;-72
2022/06/09 01:49:07;;;;;;;7.55;1.70;;;;;;;14.05;74.70;100556.91;6109071;23;20012;-72
2022/06/09 01:51:34;;;;;;;8.82;1.27;;;;;;;14.06;74.70;100555.75;6133362;23;20016;-72
2022/06/09 01:54:05;;;;;;;7.28;1.45;;;;;;;14.03;74.60;100556.41;6133727;23;20001;-72
2022/06/09 01:56:50;;;;;;;8.82;1.90;;;;;;;14.06;74.89;100566.94;6109730;23;20088;-72
2022/06/09 01:59:28;;;;;;;5.75;1.38;;;;;;;14.07;75.37;100568.59;6108888;23;20009;-72
2022/06/09 02:02:25;;;;;;;9.32;1.90;;;;;;;14.05;75.16;100568.09;6133530;23;20041;-72
2022/06/09 02:04:53;;;;;;;7.35;1.40;;;;;;;14.07;75.53;100565.81;6136739;23;20439;-72
2022/06/09 02:07:19;;;;;;;7.70;1.20;;;;;;;14.11;75.88;100570.75;6133326;23;20006;-72
2022/06/09 02:09:44;;;;;;;7.07;1.55;;;;;;;14.06;75.53;100575.31;6108933;23;20028;-72
2022/06/09 02:12:13;;;;;;;6.97;1.48;;;;;;;14.05;75.93;100579.25;6157537;23;20009;-72
2022/06/09 02:14:39;;;;;;;9.40;1.60;;;;;;;14.07;76.06;100576.97;6109278;23;19997;-72
2022/06/09 02:17:06;;;;;;;7.70;1.15;;;;;;;14.06;75.60;100572.53;6159280;23;20009;-73
2022/06/09 02:19:32;;;;;;;6.22;1.10;;;;;;;14.09;75.82;100571.88;6133352;23;20009;-72
2022/06/09 02:21:57;;;;;;;6.63;1.17;;;;;;;14.10;76.09;100569.94;6133110;23;20067;-72
2022/06/09 02:24:23;;;;;;;7.18;1.83;;;;;;;14.10;75.71;100567.16;6133080;23;20343;-72
2022/06/09 02:26:48;;;;;;;6.50;1.35;;;;;;;14.09;75.67;100571.88;6159016;23;20036;-72
2022/06/09 02:29:14;;;;;;;12.15;1.63;;;;;;;14.07;75.99;100565.81;6158820;23;20021;-72
2022/06/09 02:31:40;;;;;;;8.98;1.40;;;;;;;14.07;75.92;100563.03;6159199;23;20009;-72
2022/06/09 02:34:05;;;;;;;7.45;1.30;;;;;;;14.07;76.62;100563.03;6132995;23;20013;-72
2022/06/09 02:36:31;;;;;;;10.75;1.73;;;;;;;14.07;75.73;100556.63;6158991;23;20016;-72
2022/06/09 02:38:56;;;;;;;7.43;1.30;;;;;;;14.07;76.29;100567.78;6159130;23;20036;-72
2022/06/09 02:41:22;;;;;;;7.88;1.45;;;;;;;14.06;76.57;100566.13;6158787;23;20006;-72
2022/06/09 02:43:47;;;;;;;8.48;1.48;;;;;;;14.05;76.35;100559.72;6132993;23;20013;-72
2022/06/09 02:46:13;;;;;;;6.88;1.10;;;;;;;14.04;76.53;100558.06;6159068;23;20013;-72
2022/06/09 02:48:40;;;;;;;6.82;1.23;;;;;;;14.06;76.63;100554.94;6159100;23;20010;-72
2022/06/09 02:51:34;;;;;;;6.88;1.60;;;;;;;14.04;76.57;100573.97;6133256;23;20037;-72
2022/06/09 02:54:05;;;;;;;7.82;1.38;;;;;;;14.03;76.09;100578.75;6159061;23;20010;-72
2022/06/09 02:56:31;;;;;;;7.53;1.33;;;;;;;14.01;76.58;100586.63;6158723;23;20005;-72
2022/06/09 02:58:57;;;;;;;10.02;1.88;;;;;;;14.02;76.42;100593.03;6159022;23;20436;-72
2022/06/09 03:01:23;;;;;;;10.18;1.85;;;;;;;14.02;76.62;100579.91;6159116;23;20056;-72
2022/06/09 03:03:49;;;;;;;7.03;1.45;;;;;;;14.01;77.17;100569.88;6159157;23;20006;-72
2022/06/09 03:06:14;;;;;;;8.85;1.70;;;;;;;13.99;76.47;100560.97;6158763;23;20040;-72
2022/06/09 03:08:39;;;;;;;7.95;1.52;;;;;;;13.97;76.44;100559.63;6158487;23;20016;-72
2022/06/09 03:11:06;;;;;;;8.23;1.60;;;;;;;13.98;76.85;100562.09;6158612;23;20006;-72
2022/06/09 03:13:32;;;;;;;7.75;1.70;;;;;;;13.96;77.02;100566.38;6158949;23;20006;-72
2022/06/09 03:15:57;;;;;;;7.93;1.60;;;;;;;13.95;76.50;100576.69;6158923;23;20005;-73
2022/06/09 03:18:22;;;;;;;8.40;1.58;;;;;;;13.94;76.32;100580.63;6158902;23;20064;-72
2022/06/09 03:20:48;;;;;;;6.13;1.55;;;;;;;13.89;76.45;100588.31;6158669;23;20009;-73
2022/06/09 03:23:14;;;;;;;7.97;1.70;;;;;;;13.85;76.38;100593.69;6158707;23;20497;-73
2022/06/09 03:25:39;;;;;;;7.47;1.40;;;;;;;13.84;76.80;100600.41;6132421;23;20025;-72
2022/06/09 03:28:05;;;;;;;8.93;1.73;;;;;;;13.80;76.50;100602.19;6158859;23;20019;-73
2022/06/09 03:30:32;;;;;;;7.18;1.40;;;;;;;13.77;76.70;100602.81;6158977;23;20021;-73
2022/06/09 03:32:57;;;;;;;7.97;1.60;;;;;;;13.74;76.89;100601.47;6158812;23;20016;-72
2022/06/09 03:35:23;;;;;;;12.73;1.88;;;;;;;13.74;76.91;100598.69;6132696;23;20017;-72
2022/06/09 03:37:48;;;;;;;7.53;1.65;;;;;;;13.78;76.21;100594.13;6159015;23;20017;-72
2022/06/09 03:40:15;;;;;;;5.20;1.67;;;;;;;13.71;77.00;100598.50;6158702;23;20080;-72
2022/06/09 03:42:41;;;;;;;6.50;1.40;;;;;;;13.68;76.75;100596.31;6160047;23;20005;-72
2022/06/09 03:45:07;;;;;;;7.97;1.75;;;;;;;13.68;77.97;100599.09;6160843;23;20032;-73
2022/06/09 03:47:33;;;;;;;5.70;1.70;;;;;;;13.66;77.93;100604.19;6134829;23;20579;-72
2022/06/09 03:49:58;;;;;;;11.95;1.70;;;;;;;13.62;77.20;100604.81;6134514;23;20095;-72
2022/06/09 03:52:24;;;;;;;9.07;1.50;;;;;;;13.62;77.63;100593.66;6183992;23;20009;-72
2022/06/09 03:54:49;;;;;;;7.82;1.52;;;;;;;13.59;77.23;100594.25;6160622;23;20427;-72
2022/06/09 03:57:15;;;;;;;9.55;1.98;;;;;;;13.60;77.11;100593.13;6134241;23;20005;-72
2022/06/09 03:59:40;;;;;;;5.53;1.98;;;;;;;13.57;77.08;100593.75;6160634;23;20072;-72
2022/06/09 04:02:06;;;;;;;8.35;1.55;;;;;;;13.54;77.48;100601.91;6160677;23;20085;-72
2022/06/09 04:04:31;;;;;;;8.30;1.80;;;;;;;13.48;77.73;100612.34;6160125;23;20021;-72
2022/06/09 04:06:58;;;;;;;9.52;1.88;;;;;;;13.48;77.77;100617.91;6134517;23;20013;-72
2022/06/09 04:09:23;;;;;;;9.02;1.75;;;;;;;13.47;77.42;100621.88;6160811;23;20399;-72
2022/06/09 04:11:49;;;;;;;7.70;1.83;;;;;;;13.47;77.73;100621.03;6160270;23;20010;-72
2022/06/09 04:14:14;;;;;;;11.20;1.95;;;;;;;13.43;77.68;100611.63;6160520;23;20009;-72
2022/06/09 04:16:44;;;;;;;7.35;1.90;;;;;;;13.41;77.77;100617.53;6160451;23;20002;-72
2022/06/09 04:19:10;;;;;;;10.77;1.75;;;;;;;13.38;77.89;100624.56;6160539;23;20014;-72
2022/06/09 04:21:36;;;;;;;8.88;1.88;;;;;;;13.38;78.16;100626.53;6160434;23;20009;-73
2022/06/09 04:24:01;;;;;;;10.80;1.80;;;;;;;13.36;78.39;100624.03;6134105;23;20020;-72
2022/06/09 04:26:29;;;;;;;9.73;1.70;;;;;;;13.34;78.28;100628.25;6160135;23;20015;-72
2022/06/09 04:28:55;;;;;;;9.57;1.45;;;;;;;13.34;78.84;100633.84;6133987;23;20006;-72
2022/06/09 04:31:21;;;;;;;11.52;1.70;;;;;;;13.32;78.56;100648.13;6160382;23;20073;-72
2022/06/09 04:33:46;;;;;;;6.45;1.42;;;;;;;13.35;78.81;100646.69;6160413;23;20010;-72
2022/06/09 04:36:12;;;;;;;5.95;1.25;;;;;;;13.33;79.06;100646.16;6160131;23;20009;-72
2022/06/09 04:38:38;;;;;;;7.30;1.80;;;;;;;13.37;79.22;100652.75;6160360;23;20009;-72
2022/06/09 04:41:04;;;;;;;8.00;1.80;;;;;;;13.36;78.74;100646.34;6159869;23;20069;-72
2022/06/09 04:43:29;;;;;;;8.63;1.70;;;;;;;13.42;78.79;100652.66;6160183;23;20014;-72
2022/06/09 04:45:55;;;;;;;8.98;2.30;;;;;;;13.40;79.42;100641.81;6134238;23;20493;-72
2022/06/09 04:48:20;;;;;;;11.35;2.13;;;;;;;13.42;80.19;100641.50;6160169;23;20012;-72
2022/06/09 04:50:46;;;;;;;9.13;1.60;;;;;;;13.45;81.23;100649.25;6159972;23;20017;-73
2022/06/09 04:53:11;;;;;;;9.45;2.08;;;;;;;13.46;81.24;100667.66;6159965;23;20009;-72
2022/06/09 04:55:38;;;;;;;9.52;1.65;;;;;;;13.47;82.10;100660.91;6159879;23;20009;-72
2022/06/09 04:58:03;;;;;;;8.57;1.73;;;;;;;13.49;81.56;100658.66;6134126;23;20056;-72
2022/06/09 05:00:29;;;;;;;9.38;1.52;;;;;;;13.51;82.37;100661.13;6160035;23;20013;-72
2022/06/09 05:02:55;;;;;;;9.38;1.52;;;;;;;13.51;81.32;100667.56;6134142;23;20009;-72
2022/06/09 05:05:27;;;;;;;9.30;1.90;;;;;;;13.56;82.29;100667.41;6133718;23;20331;-72
2022/06/09 05:07:52;;;;;;;9.63;1.85;;;;;;;13.57;83.60;100677.47;6183470;23;20006;-72
2022/06/09 05:10:18;;;;;;;6.70;1.50;;;;;;;13.62;83.21;100682.94;6159459;23;20012;-72
2022/06/09 05:12:43;;;;;;;13.18;2.17;;;;;;;13.67;83.16;100693.16;6160007;23;20013;-72
2022/06/09 05:15:17;;;;;;;9.38;1.83;;;;;;;13.68;83.67;100688.41;6159838;23;20016;-72
2022/06/09 05:17:43;;;;;;;7.55;1.52;;;;;;;13.72;82.66;100689.44;6134015;23;20017;-73
2022/06/09 05:20:11;;;;;;;11.05;2.17;;;;;;;13.76;84.05;100679.31;6158391;23;20005;-72
2022/06/09 05:22:36;;;;;;;12.88;1.50;;;;;;;13.79;84.29;100681.47;6133780;23;20010;-72
2022/06/09 05:25:02;;;;;;;8.75;1.90;;;;;;;13.83;84.55;100696.47;6133818;23;20013;-72
2022/06/09 05:27:28;;;;;;;13.52;1.90;;;;;;;13.87;83.84;100691.91;6133406;23;20071;-73
2022/06/09 05:29:53;;;;;;;11.52;1.75;;;;;;;13.91;84.53;100698.53;6159599;23;20021;-73
2022/06/09 05:32:19;;;;;;;10.50;1.98;;;;;;;13.96;84.79;100705.97;6159906;23;20435;-72
2022/06/09 05:34:44;;;;;;;8.57;1.70;;;;;;;14.03;85.30;100706.38;6159976;23;20551;-72
2022/06/09 05:37:10;;;;;;;9.63;2.17;;;;;;;14.07;83.60;100696.25;6159809;23;20013;-73
2022/06/09 05:45:05;;;;;;;9.57;2.20;;;;;;;14.32;85.87;100692.03;6137517;23;20079;-72
2022/06/09 05:47:30;;;;;;;10.52;1.77;;;;;;;14.40;86.23;100694.09;6159570;23;20029;-73
2022/06/09 05:49:56;;;;;;;12.45;2.13;;;;;;;14.48;86.49;100701.69;6159442;23;20068;-73
2022/06/09 05:52:23;;;;;;;12.77;2.08;;;;;;;14.56;88.08;100693.75;6158086;23;20020;-73
2022/06/09 05:54:49;;;;;;;12.80;2.00;;;;;;;14.63;86.46;100685.75;6133339;23;20015;-72
2022/06/09 05:57:15;;;;;;;14.40;2.60;;;;;;;14.74;87.15;100687.16;6159423;23;20016;-71
2022/06/09 05:59:40;;;;;;;15.52;2.13;;;;;;;14.83;86.74;100688.03;6133495;23;20009;-71
2022/06/09 06:02:06;;;;;;;12.98;1.92;;;;;;;14.94;87.96;100703.41;6133620;23;20005;-71
2022/06/09 06:04:32;;;;;;;13.75;2.50;;;;;;;15.03;85.85;100703.47;6157662;23;20017;-71
2022/06/09 06:06:57;;;;;;;15.30;2.40;;;;;;;15.11;86.46;100707.47;6159521;23;20033;-71
2022/06/09 06:09:23;;;;;;;16.80;2.47;;;;;;;15.20;88.04;100716.72;6132896;23;20013;-71
2022/06/09 06:11:49;;;;;;;19.42;3.08;;;;;;;15.33;86.40;100720.59;6159292;23;20009;-71
2022/06/09 06:14:14;;;;;;;11.85;2.17;;;;;;;15.46;84.05;100730.03;6109219;23;20037;-71
2022/06/09 06:16:40;;;;;;;16.15;2.58;;;;;;;15.57;85.63;100717.41;6109313;23;20371;-71
2022/06/09 06:19:07;;;;;;;14.20;2.20;;;;;;;15.68;84.10;100720.75;6108918;23;20016;-79
2022/06/09 06:21:33;;;;;;;15.80;2.00;;;;;;;15.78;83.38;100729.72;6084987;23;20008;-73
2022/06/09 06:23:59;;;;;;;13.75;2.03;;;;;;;15.90;81.46;100739.47;6133157;23;20085;-73
2022/06/09 06:26:24;;;;;;;14.70;2.28;;;;;;;15.99;80.54;100743.97;6109027;23;20005;-73
2022/06/09 06:28:50;;;;;;;12.82;2.33;;;;;;;16.09;81.64;100740.03;6108621;23;20076;-73
2022/06/09 06:31:16;;;;;;;10.18;2.08;;;;;;;16.17;81.09;100732.78;6085095;23;20020;-73
2022/06/09 06:33:41;;;;;;;10.18;1.73;;;;;;;16.25;80.53;100732.00;6084963;23;20014;-73
2022/06/09 06:36:07;;;;;;;19.40;2.67;;;;;;;16.33;81.17;100733.97;6084930;23;20013;-73
2022/06/09 06:38:32;;;;;;;16.20;2.22;;;;;;;16.40;80.81;100725.91;6084681;23;20013;-73
2022/06/09 06:40:58;;;;;;;14.95;2.20;;;;;;;16.49;79.31;100729.56;6108642;23;20013;-73
2022/06/09 06:43:23;;;;;;;14.30;2.17;;;;;;;16.57;79.97;100730.69;6109007;23;20021;-73
2022/06/09 06:45:49;;;;;;;14.65;2.33;;;;;;;16.65;81.25;100737.47;6159376;23;20056;-73
2022/06/09 06:48:14;;;;;;;14.18;2.05;;;;;;;16.68;80.81;100748.00;6108789;23;20056;-73
2022/06/09 06:50:40;;;;;;;18.30;2.47;;;;;;;16.79;80.88;100754.16;6108180;23;20018;-73
2022/06/09 06:53:06;;;;;;;15.43;2.08;;;;;;;16.89;80.07;100770.66;6108529;23;20009;-73
2022/06/09 06:55:31;;;;;;;10.95;2.03;;;;;;;16.98;78.31;100768.66;6107754;23;20009;-73
2022/06/09 06:57:57;;;;;;;18.45;3.00;;;;;;;17.06;80.41;100775.44;6108895;23;20378;-73
2022/06/09 07:00:23;;;;;;;15.43;2.72;;;;;;;17.17;78.48;100785.16;6108849;23;20021;-73
2022/06/09 07:02:49;;;;;;;15.48;1.98;;;;;;;17.25;78.52;100783.50;6108097;23;20072;-73
2022/06/09 07:05:15;;;;;;;18.30;2.33;;;;;;;17.34;78.97;100778.69;6084624;23;20017;-73
2022/06/09 07:07:41;;;;;;;18.00;2.97;;;;;;;17.43;78.80;100779.50;6132839;23;20075;-73
2022/06/09 07:10:07;;;;;;;13.60;2.38;;;;;;;17.52;77.01;100777.47;6108398;23;20009;-74
2022/06/09 07:12:32;;;;;;;17.38;3.05;;;;;;;17.58;78.78;100780.97;6084465;23;20010;-73
2022/06/09 07:14:58;;;;;;;12.70;2.10;;;;;;;17.70;77.93;100783.06;6084941;23;20009;-73
2022/06/09 07:17:24;;;;;;;19.38;2.63;;;;;;;17.77;77.19;100783.34;6110486;23;20013;-73
2022/06/09 07:19:49;;;;;;;16.70;2.45;;;;;;;17.85;77.11;100796.56;6134888;23;20104;-71
2022/06/09 07:22:15;;;;;;;16.13;2.28;;;;;;;17.92;77.30;100799.69;6086538;23;20009;-72
2022/06/09 07:24:41;;;;;;;14.75;2.30;;;;;;;17.99;77.45;100797.19;6134729;23;20060;-72
2022/06/09 07:27:06;;;;;;;15.52;2.80;;;;;;;18.07;77.89;100798.31;6086524;23;20335;-72
2022/06/09 07:29:32;;;;;;;17.20;2.47;;;;;;;18.13;76.92;100799.75;6105421;23;20021;-72
2022/06/09 07:31:57;;;;;;;15.93;2.20;;;;;;;18.22;76.58;100788.47;6129776;23;20494;-72
2022/06/09 07:34:23;;;;;;;12.48;1.60;;;;;;;18.27;76.84;100796.72;6154183;23;20014;-72
2022/06/09 07:36:48;;;;;;;13.65;2.33;;;;;;;18.31;76.85;100798.50;6105329;23;20017;-72
2022/06/09 07:39:14;;;;;;;14.18;2.30;;;;;;;18.37;77.10;100807.56;6154871;23;20010;-72
2022/06/09 07:41:39;;;;;;;16.45;2.47;;;;;;;18.44;76.66;100807.03;6105128;23;20014;-72
2022/06/09 07:44:06;;;;;;;15.13;2.72;;;;;;;18.50;77.34;100806.50;6154440;23;20006;-72
2022/06/09 07:46:31;;;;;;;15.35;2.70;;;;;;;18.54;76.59;100813.09;6129752;23;20345;-72
2022/06/09 07:48:57;;;;;;;14.15;2.13;;;;;;;18.60;76.75;100815.72;6105737;23;20017;-72
2022/06/09 07:51:23;;;;;;;18.40;2.38;;;;;;;18.65;75.72;100816.34;6154479;23;20014;-72
2022/06/09 07:53:48;;;;;;;14.15;2.45;;;;;;;18.71;76.38;100809.34;6179193;23;20010;-72
2022/06/09 07:56:14;;;;;;;13.85;2.50;;;;;;;18.82;75.40;100811.78;6129462;23;20427;-72
2022/06/09 07:58:39;;;;;;;10.60;2.50;;;;;;;18.87;75.96;100815.22;6153260;23;20010;-72
2022/06/09 08:01:05;;;;;;;18.20;2.35;;;;;;;18.95;75.02;100822.78;6129800;23;20048;-72
2022/06/09 08:03:30;;;;;;;15.13;2.28;;;;;;;19.04;73.84;100819.06;6154180;23;20013;-72
2022/06/09 08:05:56;;;;;;;16.75;2.58;;;;;;;19.16;72.57;100834.00;6154036;23;20006;-72
2022/06/09 08:08:22;;;;;;;14.90;2.40;;;;;;;19.26;72.06;100829.13;6179051;23;20017;-72
2022/06/09 08:10:47;;;;;;;15.43;2.15;;;;;;;19.36;71.68;100831.50;6153935;23;20033;-73
2022/06/09 08:13:13;;;;;;;14.00;2.40;;;;;;;19.44;71.57;100844.69;6154685;23;20331;-72
2022/06/09 08:15:39;;;;;;;17.95;2.63;;;;;;;19.54;71.73;100843.44;6129761;23;20033;-72
2022/06/09 08:18:04;;;;;;;16.10;2.22;;;;;;;19.60;70.53;100836.41;6153930;23;20081;-72
2022/06/09 08:20:32;;;;;;;14.98;2.20;;;;;;;19.71;69.64;100843.28;6128196;23;20014;-72
2022/06/09 08:23:02;;;;;;;11.10;2.28;;;;;;;19.81;68.76;100848.50;6105140;23;20017;-72
2022/06/09 08:25:28;;;;;;;13.40;2.15;;;;;;;19.91;67.97;100844.38;6153662;23;20010;-72
2022/06/09 08:27:53;;;;;;;10.77;2.60;;;;;;;19.98;67.04;100852.28;6104752;23;20042;-72
2022/06/09 08:30:19;;;;;;;11.07;2.10;;;;;;;20.03;66.47;100846.41;6153822;23;20020;-72
2022/06/09 08:32:44;;;;;;;16.60;2.67;;;;;;;20.14;65.85;100844.78;6129641;23;20019;-72
2022/06/09 08:35:13;;;;;;;11.88;2.30;;;;;;;20.19;64.86;100849.38;6129328;23;20014;-73
2022/06/09 08:37:38;;;;;;;16.27;2.80;;;;;;;20.26;64.58;100844.78;6153920;23;20041;-73
2022/06/09 08:40:05;;;;;;;13.10;2.10;;;;;;;20.33;64.15;100837.75;6129114;23;20014;-73
2022/06/09 08:42:54;;;;;;;15.55;2.30;;;;;;;20.43;63.93;100851.38;6129480;23;20646;-72
2022/06/09 08:45:27;;;;;;;15.95;2.78;;;;;;;20.53;63.48;100840.47;6178521;23;20020;-73
2022/06/09 08:47:53;;;;;;;;;;;;;;;20.62;63.29;100843.19;6154225;23;20017;-73
2022/06/09 08:50:29;;;;;;;14.20;2.45;;;;;;;20.74;63.47;100837.50;6104799;23;19927;-72
2022/06/09 08:52:58;;;;;;;13.13;1.85;;;;;;;20.87;62.85;100843.16;6154029;23;20085;-72
2022/06/09 08:55:36;;;;;;;13.00;2.20;;;;;;;21.01;62.66;100843.56;6153119;23;20006;-73
2022/06/09 08:58:17;;;;;;;9.90;2.15;;;;;;;21.19;62.50;100846.94;6104813;23;20089;-72
2022/06/09 09:00:46;;;;;;;10.75;1.60;;;;;;;21.39;61.21;100847.94;6152281;23;20014;-72
2022/06/09 09:03:35;;;;;;;12.05;1.80;;;;;;;21.53;58.22;100848.34;6128792;23;20014;-72
2022/06/09 09:06:04;;;;;;;11.02;1.80;;;;;;;21.72;58.74;100850.50;6128902;23;20013;-72
2022/06/09 09:08:29;;;;;;;11.43;2.03;;;;;;;21.86;56.76;100850.06;6129153;23;20014;-72
2022/06/09 09:11:10;;;;;;;13.35;2.00;;;;;;;22.02;56.47;100847.25;6104180;23;20006;-72
2022/06/09 09:13:59;;;;;;;10.55;2.05;;;;;;;22.19;54.68;100858.25;6104574;23;20012;-72
2022/06/09 09:16:39;;;;;;;11.48;1.88;;;;;;;22.38;55.85;100843.34;6128814;23;20368;-72
2022/06/09 09:19:19;;;;;;;9.50;1.52;;;;;;;22.62;56.04;100853.66;6129124;23;20006;-72
2022/06/09 09:21:57;;;;;;;9.02;1.50;;;;;;;22.76;53.92;100850.31;6152284;23;20455;-72
2022/06/09 09:24:24;;;;;;;9.77;1.73;;;;;;;23.05;53.80;100834.03;6178235;23;20460;-73
2022/06/09 09:26:56;;;;;;;10.25;1.60;;;;;;;23.27;52.51;100836.13;6153118;23;20010;-73
2022/06/09 09:29:38;;;;;;;9.77;1.58;;;;;;;23.57;52.83;100835.50;6139319;23;20049;-73
2022/06/09 09:32:16;;;;;;;11.35;1.70;;;;;;;23.83;51.56;100832.78;6110548;23;20032;-72
2022/06/09 09:34:43;;;;;;;7.43;1.35;;;;;;;24.10;50.89;100838.56;6109688;23;20006;-73
2022/06/09 09:37:32;;;;;;;6.72;1.63;;;;;;;24.37;49.03;100839.41;6085922;23;20088;-73
2022/06/09 09:40:10;;;;;;;5.35;1.33;;;;;;;24.68;50.03;100838.31;6109298;23;20331;-72
2022/06/09 09:42:37;;;;;;;10.38;1.73;;;;;;;24.89;47.98;100832.13;6085233;23;20402;-72
2022/06/09 09:45:12;;;;;;;9.07;1.20;;;;;;;25.15;47.30;100838.97;6086054;23;20518;-72
2022/06/09 09:47:51;;;;;;;6.88;1.55;;;;;;;25.42;48.33;100843.41;6135307;23;20028;-72
2022/06/09 09:50:21;;;;;;;9.65;1.52;;;;;;;25.62;46.88;100838.34;6133691;23;20020;-72
2022/06/09 09:52:47;;;;;;;5.28;1.20;;;;;;;25.87;47.54;100840.66;6108323;23;20001;-72
2022/06/09 09:55:25;;;;;;;5.38;1.15;;;;;;;25.99;45.17;100846.09;6108571;23;20067;-72
2022/06/09 09:58:18;;;;;;;7.25;1.77;;;;;;;26.26;43.21;100851.63;6109689;23;20016;-72
2022/06/09 10:00:50;;;;;;;;;;;;;;;26.36;43.55;100850.91;6082878;23;20069;-72
2022/06/09 10:09:01;;;;;;;5.80;1.10;;;;;;;27.06;42.57;100837.56;6140974;23;20010;-72
2022/06/09 10:14:36;;;;;;;6.40;1.23;;;;;;;27.47;40.56;100848.78;6137176;23;20008;-73
2022/06/09 10:17:04;;;;;;;5.97;1.35;;;;;;;27.69;40.77;100841.06;6111267;23;20423;-73
2022/06/09 10:19:31;;;;;;;6.45;1.25;;;;;;;27.83;41.12;100844.03;6085714;23;20016;-72
2022/06/09 10:22:01;;;;;;;5.88;1.50;;;;;;;28.01;41.20;100851.78;6108746;23;20033;-73
2022/06/09 10:24:47;;;;;;;5.10;1.17;;;;;;;28.19;40.10;100849.75;6133702;23;20015;-73
2022/06/09 10:27:13;;;;;;;6.47;1.20;;;;;;;28.38;39.92;100839.97;6109042;23;20093;-73
2022/06/09 10:29:51;;;;;;;4.32;0.80;;;;;;;28.54;39.05;100848.16;6133177;23;20013;-73
2022/06/09 10:32:22;;;;;;;6.35;1.13;;;;;;;28.66;39.47;100847.72;6134220;23;20080;-74
2022/06/09 10:35:04;;;;;;;6.93;1.05;;;;;;;28.79;38.98;100844.47;6158880;23;20037;-74
2022/06/09 10:38:02;;;;;;;5.63;1.10;;;;;;;28.84;36.87;100839.16;6110366;23;20092;-73
2022/06/09 10:40:41;;;;;;;6.13;1.10;;;;;;;28.89;37.23;100843.59;6122065;23;20060;-74
2022/06/09 10:43:29;;;;;;;7.18;1.20;;;;;;;28.86;37.56;100847.28;6086249;23;20006;-74
2022/06/09 10:45:59;;;;;;;9.63;1.35;;;;;;;28.87;37.82;100840.38;6132024;23;20041;-74
2022/06/09 10:57:32;;;;;;;5.10;0.90;;;;;;;29.17;38.12;100843.56;6117706;23;20006;-74
2022/06/09 11:00:14;;;;;;;5.15;0.90;;;;;;;29.33;37.36;100839.41;6108685;23;20462;-73
2022/06/09 11:02:50;;;;;;;;;;;;;;;29.48;37.84;100838.13;6182961;23;20017;-73
2022/06/09 11:05:17;;;;;;;5.45;1.00;;;;;;;29.59;35.77;100836.03;6158892;23;19987;-73
2022/06/09 11:07:45;;;;;;;5.78;0.90;;;;;;;29.70;36.44;100847.44;6159076;23;20021;-73
2022/06/09 11:10:17;;;;;;;4.40;0.93;;;;;;;29.75;34.97;100844.13;6158842;23;20067;-73
2022/06/09 11:12:45;;;;;;;6.15;1.10;;;;;;;29.83;35.73;100839.19;6133680;23;20085;-73
2022/06/09 11:15:33;;;;;;;5.28;0.90;;;;;;;29.73;35.43;100852.34;6133034;23;20057;-73
2022/06/09 11:18:13;;;;;;;7.50;1.00;;;;;;;29.70;36.60;100843.75;6110989;23;20013;-73
2022/06/09 11:20:56;;;;;;;7.75;1.15;;;;;;;29.61;36.55;100849.91;6110087;23;20032;-73
2022/06/09 11:23:36;;;;;;;5.68;1.00;;;;;;;29.66;35.75;100845.81;6109116;23;20020;-73
2022/06/09 11:26:11;;;;;;;5.93;1.20;;;;;;;29.73;35.73;100851.53;6132655;23;20005;-73
2022/06/09 11:28:58;;;;;;;4.70;1.20;;;;;;;29.62;35.19;100845.81;6134050;23;20055;-73
2022/06/09 11:31:39;;;;;;;5.32;0.85;;;;;;;29.56;35.00;100836.88;6158940;23;20428;-73
2022/06/09 11:34:27;;;;;;;6.07;1.38;;;;;;;29.50;35.00;100829.13;6133454;23;20375;-72
2022/06/09 11:37:02;;;;;;;7.40;1.10;;;;;;;29.38;35.67;100845.50;6132883;23;20021;-73
2022/06/09 11:39:43;;;;;;;3.13;0.95;;;;;;;29.40;36.78;100839.41;6085038;23;20006;-73
2022/06/09 11:42:12;;;;;;;4.35;0.90;;;;;;;29.35;36.83;100839.81;6110977;23;20080;-73
2022/06/09 11:44:40;;;;;;;4.28;0.85;;;;;;;29.45;35.97;100841.81;6108709;23;20010;-73
2022/06/09 11:47:13;;;;;;;4.43;1.00;;;;;;;29.51;36.29;100845.88;6108353;23;20005;-73
2022/06/09 11:49:59;;;;;;;;;;;;;;;29.38;35.62;100839.78;6133968;23;20448;-72
2022/06/09 11:52:30;;;;;;;2.90;0.60;;;;;;;29.47;36.57;100836.47;6131365;23;20607;-72
2022/06/09 11:55:00;;;;;;;6.65;0.80;;;;;;;29.49;35.14;100841.81;6084163;23;20002;-72